sensor_id;sensor_type;location;lat;lon;timestamp;pressure;altitude;pressure_sealevel;temperature;humidity
141;BME280;65;48.778;9.160;2023-01-27T00:00:10;98821.25;;;-1.66;100.00
141;BME280;65;48.778;9.160;2023-01-27T00:02:36;98816.09;;;-1.72;100.00
141;BME280;65;48.778;9.160;2023-01-27T00:05:02;98822.09;;;-1.67;100.00
141;BME280;65;48.778;9.160;2023-01-27T00:07:28;98816.94;;;-1.67;100.00
141;BME280;65;48.778;9.160;2023-01-27T00:09:53;98816.06;;;-1.69;100.00
141;BME280;65;48.778;9.160;2023-01-27T00:12:23;98818.69;;;-1.72;100.00
141;BME280;65;48.778;9.160;2023-01-27T00:15:10;98818.66;;;-1.75;100.00
141;BME280;65;48.778;9.160;2023-01-27T00:17:36;98815.19;;;-1.74;100.00
141;BME280;65;48.778;9.160;2023-01-27T00:20:02;98813.50;;;-1.81;100.00
141;BME280;65;48.778;9.160;2023-01-27T00:22:30;98812.63;;;-1.77;100.00
141;BME280;65;48.778;9.160;2023-01-27T00:25:14;98808.31;;;-1.72;100.00
141;BME280;65;48.778;9.160;2023-01-27T00:27:39;98805.69;;;-1.66;100.00
141;BME280;65;48.778;9.160;2023-01-27T00:30:06;98803.09;;;-1.66;100.00
141;BME280;65;48.778;9.160;2023-01-27T00:32:31;98808.28;;;-1.63;100.00
141;BME280;65;48.778;9.160;2023-01-27T00:35:16;98807.41;;;-1.62;100.00
141;BME280;65;48.778;9.160;2023-01-27T00:37:42;98803.94;;;-1.61;100.00
141;BME280;65;48.778;9.160;2023-01-27T00:40:11;98807.38;;;-1.58;100.00
141;BME280;65;48.778;9.160;2023-01-27T00:42:36;98801.31;;;-1.56;100.00
141;BME280;65;48.778;9.160;2023-01-27T00:45:02;98805.63;;;-1.52;100.00
141;BME280;65;48.778;9.160;2023-01-27T00:47:47;98813.44;;;-1.58;100.00
141;BME280;65;48.778;9.160;2023-01-27T00:50:13;98816.88;;;-1.54;100.00
141;BME280;65;48.778;9.160;2023-01-27T00:52:39;98816.00;;;-1.56;100.00
141;BME280;65;48.778;9.160;2023-01-27T00:55:05;98815.16;;;-1.55;100.00
141;BME280;65;48.778;9.160;2023-01-27T00:57:31;98804.81;;;-1.62;100.00
141;BME280;65;48.778;9.160;2023-01-27T00:59:58;98814.38;;;-1.73;100.00
141;BME280;65;48.778;9.160;2023-01-27T01:02:23;98811.72;;;-1.64;100.00
141;BME280;65;48.778;9.160;2023-01-27T01:04:49;98815.19;;;-1.62;100.00
141;BME280;65;48.778;9.160;2023-01-27T01:07:14;98813.47;;;-1.67;100.00
141;BME280;65;48.778;9.160;2023-01-27T01:09:40;98818.66;;;-1.66;100.00
141;BME280;65;48.778;9.160;2023-01-27T01:12:05;98824.66;;;-1.57;100.00
141;BME280;65;48.778;9.160;2023-01-27T01:14:31;98820.31;;;-1.54;100.00
141;BME280;65;48.778;9.160;2023-01-27T01:16:56;98819.47;;;-1.57;100.00
141;BME280;65;48.778;9.160;2023-01-27T01:19:21;98820.38;;;-1.63;100.00
141;BME280;65;48.778;9.160;2023-01-27T01:21:47;98821.25;;;-1.66;100.00
141;BME280;65;48.778;9.160;2023-01-27T01:24:12;98827.25;;;-1.56;100.00
141;BME280;65;48.778;9.160;2023-01-27T01:26:38;98822.06;;;-1.57;100.00
141;BME280;65;48.778;9.160;2023-01-27T01:29:03;98823.81;;;-1.64;100.00
141;BME280;65;48.778;9.160;2023-01-27T01:31:29;98827.25;;;-1.61;100.00
141;BME280;65;48.778;9.160;2023-01-27T01:34:05;98828.13;;;-1.58;100.00
141;BME280;65;48.778;9.160;2023-01-27T01:36:30;98822.06;;;-1.54;100.00
141;BME280;65;48.778;9.160;2023-01-27T01:38:56;98823.75;;;-1.49;100.00
141;BME280;65;48.778;9.160;2023-01-27T01:41:22;98822.91;;;-1.51;100.00
141;BME280;65;48.778;9.160;2023-01-27T01:43:49;98819.47;;;-1.57;100.00
141;BME280;65;48.778;9.160;2023-01-27T01:46:15;98822.00;;;-1.44;100.00
141;BME280;65;48.778;9.160;2023-01-27T01:49:01;98816.84;;;-1.51;100.00
141;BME280;65;48.778;9.160;2023-01-27T01:51:34;98808.22;;;-1.55;100.00
141;BME280;65;48.778;9.160;2023-01-27T01:54:08;98808.22;;;-1.55;100.00
141;BME280;65;48.778;9.160;2023-01-27T01:57:00;98807.41;;;-1.60;100.00
141;BME280;65;48.778;9.160;2023-01-27T01:59:34;98807.38;;;-1.55;100.00
141;BME280;65;48.778;9.160;2023-01-27T02:02:07;98805.63;;;-1.53;100.00
141;BME280;65;48.778;9.160;2023-01-27T02:05:02;98791.81;;;-1.55;100.00
141;BME280;65;48.778;9.160;2023-01-27T02:07:56;98791.84;;;-1.58;100.00
141;BME280;65;48.778;9.160;2023-01-27T02:10:23;98785.78;;;-1.59;100.00
141;BME280;65;48.778;9.160;2023-01-27T02:12:49;98795.28;;;-1.55;100.00
141;BME280;65;48.778;9.160;2023-01-27T02:15:14;98793.50;;;-1.48;100.00
141;BME280;65;48.778;9.160;2023-01-27T02:17:40;98789.25;;;-1.57;100.00
141;BME280;65;48.778;9.160;2023-01-27T02:28:35;98791.78;;;-1.51;100.00
141;BME280;65;48.778;9.160;2023-01-27T02:31:01;98783.19;;;-1.54;100.00
141;BME280;65;48.778;9.160;2023-01-27T02:33:26;98784.91;;;-1.56;100.00
141;BME280;65;48.778;9.160;2023-01-27T02:38:33;98779.72;;;-1.56;100.00
141;BME280;65;48.778;9.160;2023-01-27T02:41:06;98782.31;;;-1.52;100.00
141;BME280;65;48.778;9.160;2023-01-27T02:43:32;98790.03;;;-1.47;100.00
141;BME280;65;48.778;9.160;2023-01-27T02:45:57;98792.66;;;-1.52;100.00
141;BME280;65;48.778;9.160;2023-01-27T02:48:23;98791.78;;;-1.51;100.00
141;BME280;65;48.778;9.160;2023-01-27T02:50:48;98796.94;;;-1.46;100.00
141;BME280;65;48.778;9.160;2023-01-27T02:53:13;98792.59;;;-1.43;100.00
141;BME280;65;48.778;9.160;2023-01-27T02:55:39;98785.72;;;-1.48;100.00
141;BME280;65;48.778;9.160;2023-01-27T02:58:04;98784.88;;;-1.50;100.00
141;BME280;65;48.778;9.160;2023-01-27T03:00:30;98786.63;;;-1.52;100.00
141;BME280;65;48.778;9.160;2023-01-27T03:02:55;98779.63;;;-1.40;100.00
141;BME280;65;48.778;9.160;2023-01-27T03:05:20;98777.91;;;-1.42;100.00
141;BME280;65;48.778;9.160;2023-01-27T03:07:48;98783.13;;;-1.47;100.00
141;BME280;65;48.778;9.160;2023-01-27T03:10:14;98777.09;;;-1.49;100.00
141;BME280;65;48.778;9.160;2023-01-27T03:12:39;98773.66;;;-1.49;100.00
141;BME280;65;48.778;9.160;2023-01-27T03:15:05;98774.50;;;-1.47;100.00
141;BME280;65;48.778;9.160;2023-01-27T03:17:49;98779.69;;;-1.47;100.00
141;BME280;65;48.778;9.160;2023-01-27T03:20:32;98771.88;;;-1.44;100.00
141;BME280;65;48.778;9.160;2023-01-27T03:22:58;98779.63;;;-1.38;100.00
141;BME280;65;48.778;9.160;2023-01-27T03:25:23;98783.97;;;-1.42;100.00
141;BME280;65;48.778;9.160;2023-01-27T03:27:48;98784.81;;;-1.41;100.00
141;BME280;65;48.778;9.160;2023-01-27T03:30:14;98783.13;;;-1.44;100.00
141;BME280;65;48.778;9.160;2023-01-27T03:32:39;98782.22;;;-1.38;100.00
141;BME280;65;48.778;9.160;2023-01-27T03:35:12;98788.28;;;-1.44;100.00
141;BME280;65;48.778;9.160;2023-01-27T03:37:38;98792.66;;;-1.49;100.00
141;BME280;65;48.778;9.160;2023-01-27T03:40:22;98790.91;;;-1.45;100.00
141;BME280;65;48.778;9.160;2023-01-27T03:43:06;98790.88;;;-1.42;100.00
141;BME280;65;48.778;9.160;2023-01-27T03:46:08;98799.47;;;-1.36;100.00
141;BME280;65;48.778;9.160;2023-01-27T03:48:54;98800.38;;;-1.40;100.00
141;BME280;65;48.778;9.160;2023-01-27T03:51:22;98796.91;;;-1.40;100.00
141;BME280;65;48.778;9.160;2023-01-27T03:53:48;98797.84;;;-1.50;100.00
141;BME280;65;48.778;9.160;2023-01-27T03:56:15;98788.28;;;-1.44;100.00
141;BME280;65;48.778;9.160;2023-01-27T03:58:41;98794.41;;;-1.57;100.00
141;BME280;65;48.778;9.160;2023-01-27T04:01:16;98797.84;;;-1.53;100.00
141;BME280;65;48.778;9.160;2023-01-27T04:03:43;98799.53;;;-1.46;100.00
141;BME280;65;48.778;9.160;2023-01-27T04:06:29;98794.34;;;-1.43;100.00
141;BME280;65;48.778;9.160;2023-01-27T04:09:33;98799.56;;;-1.52;100.00
141;BME280;65;48.778;9.160;2023-01-27T04:12:04;98787.47;;;-1.50;100.00
141;BME280;65;48.778;9.160;2023-01-27T04:14:37;98799.53;;;-1.43;100.00
141;BME280;65;48.778;9.160;2023-01-27T04:17:09;98795.19;;;-1.43;100.00
141;BME280;65;48.778;9.160;2023-01-27T04:19:36;98796.03;;;-1.39;100.00
141;BME280;65;48.778;9.160;2023-01-27T04:22:02;98799.47;;;-1.36;100.00
141;BME280;65;48.778;9.160;2023-01-27T04:24:27;98797.72;;;-1.34;100.00
141;BME280;65;48.778;9.160;2023-01-27T04:27:00;98806.41;;;-1.38;100.00
141;BME280;65;48.778;9.160;2023-01-27T04:29:29;98813.34;;;-1.41;100.00
141;BME280;65;48.778;9.160;2023-01-27T04:32:12;98809.88;;;-1.40;100.00
141;BME280;65;48.778;9.160;2023-01-27T04:34:38;98810.75;;;-1.41;100.00
141;BME280;65;48.778;9.160;2023-01-27T04:37:05;98814.22;;;-1.42;100.00
141;BME280;65;48.778;9.160;2023-01-27T04:39:31;98809.91;;;-1.45;100.00
141;BME280;65;48.778;9.160;2023-01-27T04:41:57;98813.31;;;-1.40;100.00
141;BME280;65;48.778;9.160;2023-01-27T04:44:23;98809.00;;;-1.39;100.00
141;BME280;65;48.778;9.160;2023-01-27T04:46:48;98803.84;;;-1.42;100.00
141;BME280;65;48.778;9.160;2023-01-27T04:49:14;98804.69;;;-1.39;100.00
141;BME280;65;48.778;9.160;2023-01-27T04:51:39;98803.00;;;-1.49;100.00
141;BME280;65;48.778;9.160;2023-01-27T04:54:05;98808.25;;;-1.58;100.00
141;BME280;65;48.778;9.160;2023-01-27T04:56:33;98813.41;;;-1.52;100.00
141;BME280;65;48.778;9.160;2023-01-27T04:59:00;98812.50;;;-1.48;100.00
141;BME280;65;48.778;9.160;2023-01-27T05:01:27;98800.41;;;-1.46;100.00
141;BME280;65;48.778;9.160;2023-01-27T05:03:53;98801.25;;;-1.44;100.00
141;BME280;65;48.778;9.160;2023-01-27T05:06:18;98802.13;;;-1.43;100.00
141;BME280;65;48.778;9.160;2023-01-27T05:08:44;98805.56;;;-1.44;100.00
141;BME280;65;48.778;9.160;2023-01-27T05:11:10;98815.13;;;-1.54;100.00
141;BME280;65;48.778;9.160;2023-01-27T05:13:35;98809.88;;;-1.43;100.00
141;BME280;65;48.778;9.160;2023-01-27T05:18:37;98816.81;;;-1.45;100.00
141;BME280;65;48.778;9.160;2023-01-27T05:21:03;98815.06;;;-1.40;100.00
141;BME280;65;48.778;9.160;2023-01-27T05:23:29;98800.38;;;-1.41;100.00
141;BME280;65;48.778;9.160;2023-01-27T05:26:18;98802.13;;;-1.46;100.00
141;BME280;65;48.778;9.160;2023-01-27T05:28:45;98813.41;;;-1.55;100.00
141;BME280;65;48.778;9.160;2023-01-27T05:31:18;98816.00;;;-1.52;100.00
141;BME280;65;48.778;9.160;2023-01-27T05:33:45;98824.63;;;-1.54;100.00
141;BME280;65;48.778;9.160;2023-01-27T05:36:13;98827.19;;;-1.48;100.00
141;BME280;65;48.778;9.160;2023-01-27T05:38:39;98828.06;;;-1.49;100.00
141;BME280;65;48.778;9.160;2023-01-27T05:41:06;98833.28;;;-1.52;100.00
141;BME280;65;48.778;9.160;2023-01-27T05:43:34;98839.28;;;-1.49;100.00
141;BME280;65;48.778;9.160;2023-01-27T05:46:16;98841.84;;;-1.40;100.00
141;BME280;65;48.778;9.160;2023-01-27T05:48:47;98845.31;;;-1.42;100.00
141;BME280;65;48.778;9.160;2023-01-27T05:51:13;98849.59;;;-1.38;100.00
141;BME280;65;48.778;9.160;2023-01-27T05:53:39;98846.16;;;-1.37;100.00
141;BME280;65;48.778;9.160;2023-01-27T05:56:05;98830.59;;;-1.37;100.00
141;BME280;65;48.778;9.160;2023-01-27T05:58:34;98828.88;;;-1.37;100.00
141;BME280;65;48.778;9.160;2023-01-27T06:03:32;98840.13;;;-1.39;100.00
141;BME280;65;48.778;9.160;2023-01-27T06:05:59;98841.84;;;-1.38;100.00
141;BME280;65;48.778;9.160;2023-01-27T06:08:25;98837.53;;;-1.44;100.00
141;BME280;65;48.778;9.160;2023-01-27T06:10:52;98841.81;;;-1.35;100.00
141;BME280;65;48.778;9.160;2023-01-27T06:13:19;98840.94;;;-1.31;100.00
141;BME280;65;48.778;9.160;2023-01-27T06:15:46;98840.94;;;-1.36;100.00
141;BME280;65;48.778;9.160;2023-01-27T06:18:12;98836.66;;;-1.38;100.00
141;BME280;65;48.778;9.160;2023-01-27T06:20:39;98838.38;;;-1.40;100.00
141;BME280;65;48.778;9.160;2023-01-27T06:23:05;98844.44;;;-1.40;100.00
141;BME280;65;48.778;9.160;2023-01-27T06:25:38;98843.53;;;-1.31;100.00
141;BME280;65;48.778;9.160;2023-01-27T06:28:04;98835.72;;;-1.28;100.00
141;BME280;65;48.778;9.160;2023-01-27T06:30:30;98845.19;;;-1.21;100.00
141;BME280;65;48.778;9.160;2023-01-27T06:32:55;98836.59;;;-1.28;100.00
141;BME280;65;48.778;9.160;2023-01-27T06:35:21;98844.41;;;-1.32;100.00
141;BME280;65;48.778;9.160;2023-01-27T06:37:51;98841.78;;;-1.28;100.00
141;BME280;65;48.778;9.160;2023-01-27T06:40:19;98846.06;;;-1.23;100.00
141;BME280;65;48.778;9.160;2023-01-27T06:42:45;98846.91;;;-1.20;100.00
141;BME280;65;48.778;9.160;2023-01-27T06:45:11;98846.91;;;-1.20;100.00
141;BME280;65;48.778;9.160;2023-01-27T06:47:38;98848.63;;;-1.17;100.00
141;BME280;65;48.778;9.160;2023-01-27T06:50:04;98854.69;;;-1.20;100.00
141;BME280;65;48.778;9.160;2023-01-27T06:52:30;98864.19;;;-1.20;100.00
141;BME280;65;48.778;9.160;2023-01-27T06:54:56;98866.78;;;-1.17;100.00
141;BME280;65;48.778;9.160;2023-01-27T06:57:21;98871.13;;;-1.24;100.00
141;BME280;65;48.778;9.160;2023-01-27T06:59:46;98874.59;;;-1.22;100.00
141;BME280;65;48.778;9.160;2023-01-27T07:02:12;98875.44;;;-1.15;100.00
141;BME280;65;48.778;9.160;2023-01-27T07:04:38;98878.88;;;-1.13;100.00
141;BME280;65;48.778;9.160;2023-01-27T07:07:03;98886.66;;;-1.18;100.00
141;BME280;65;48.778;9.160;2023-01-27T07:09:28;98891.00;;;-1.15;100.00
141;BME280;65;48.778;9.160;2023-01-27T07:11:54;98893.59;;;-1.14;100.00
141;BME280;65;48.778;9.160;2023-01-27T07:14:19;98900.50;;;-1.19;100.00
141;BME280;65;48.778;9.160;2023-01-27T07:16:45;98909.16;;;-1.14;100.00
141;BME280;65;48.778;9.160;2023-01-27T07:19:10;98907.41;;;-1.13;100.00
141;BME280;65;48.778;9.160;2023-01-27T07:21:37;98906.53;;;-1.11;100.00
141;BME280;65;48.778;9.160;2023-01-27T07:24:03;98913.47;;;-1.14;100.00
141;BME280;65;48.778;9.160;2023-01-27T07:26:29;98910.00;;;-1.10;100.00
141;BME280;65;48.778;9.160;2023-01-27T07:28:55;98912.59;;;-1.10;100.00
141;BME280;65;48.778;9.160;2023-01-27T07:31:21;98912.56;;;-1.09;100.00
141;BME280;65;48.778;9.160;2023-01-27T07:33:46;98907.41;;;-1.12;100.00
141;BME280;65;48.778;9.160;2023-01-27T07:36:12;98907.41;;;-1.15;100.00
141;BME280;65;48.778;9.160;2023-01-27T07:38:37;98915.19;;;-1.16;100.00
141;BME280;65;48.778;9.160;2023-01-27T07:41:04;98912.56;;;-1.06;100.00
141;BME280;65;48.778;9.160;2023-01-27T07:43:31;98916.84;;;-0.99;100.00
141;BME280;65;48.778;9.160;2023-01-27T07:45:56;98919.44;;;-0.97;100.00
141;BME280;65;48.778;9.160;2023-01-27T07:48:22;98918.56;;;-0.98;100.00
141;BME280;65;48.778;9.160;2023-01-27T07:50:47;98924.63;;;-0.99;100.00
141;BME280;65;48.778;9.160;2023-01-27T07:53:13;98929.81;;;-0.99;100.00
141;BME280;65;48.778;9.160;2023-01-27T07:55:39;98921.97;;;-0.88;100.00
141;BME280;65;48.778;9.160;2023-01-27T07:58:04;98931.50;;;-0.91;100.00
141;BME280;65;48.778;9.160;2023-01-27T08:00:30;98934.97;;;-0.92;100.00
141;BME280;65;48.778;9.160;2023-01-27T08:02:57;98932.38;;;-0.96;100.00
141;BME280;65;48.778;9.160;2023-01-27T08:05:23;98941.91;;;-0.94;100.00
141;BME280;65;48.778;9.160;2023-01-27T08:07:49;98944.47;;;-0.90;100.00
141;BME280;65;48.778;9.160;2023-01-27T08:10:16;98935.81;;;-0.87;100.00
141;BME280;65;48.778;9.160;2023-01-27T08:12:43;98936.66;;;-0.88;100.00
141;BME280;65;48.778;9.160;2023-01-27T08:15:18;98935.81;;;-0.89;100.00
141;BME280;65;48.778;9.160;2023-01-27T08:17:43;98941.03;;;-0.92;100.00
141;BME280;65;48.778;9.160;2023-01-27T08:20:09;98942.75;;;-0.92;100.00
141;BME280;65;48.778;9.160;2023-01-27T08:22:35;98940.09;;;-0.83;100.00
141;BME280;65;48.778;9.160;2023-01-27T08:25:00;98936.59;;;-0.76;100.00
141;BME280;65;48.778;9.160;2023-01-27T08:27:31;98942.66;;;-0.79;100.00
141;BME280;65;48.778;9.160;2023-01-27T08:29:56;98952.19;;;-0.79;100.00
141;BME280;65;48.778;9.160;2023-01-27T08:32:22;98954.75;;;-0.76;100.00
141;BME280;65;48.778;9.160;2023-01-27T08:35:02;98955.63;;;-0.76;100.00
141;BME280;65;48.778;9.160;2023-01-27T08:37:28;98957.34;;;-0.73;100.00
141;BME280;65;48.778;9.160;2023-01-27T08:39:53;98955.59;;;-0.71;100.00
141;BME280;65;48.778;9.160;2023-01-27T08:42:19;98962.53;;;-0.72;100.00
141;BME280;65;48.778;9.160;2023-01-27T08:44:45;98955.56;;;-0.68;100.00
141;BME280;65;48.778;9.160;2023-01-27T08:47:11;98958.22;;;-0.76;100.00
141;BME280;65;48.778;9.160;2023-01-27T08:49:36;98958.22;;;-0.74;100.00
141;BME280;65;48.778;9.160;2023-01-27T08:52:02;98962.53;;;-0.73;100.00
141;BME280;65;48.778;9.160;2023-01-27T08:54:27;98970.31;;;-0.72;100.00
141;BME280;65;48.778;9.160;2023-01-27T08:56:52;98966.00;;;-0.74;100.00
141;BME280;65;48.778;9.160;2023-01-27T08:59:18;98964.28;;;-0.75;100.00
141;BME280;65;48.778;9.160;2023-01-27T09:01:43;98966.03;;;-0.80;100.00
141;BME280;65;48.778;9.160;2023-01-27T09:04:09;98984.16;;;-0.74;100.00
141;BME280;65;48.778;9.160;2023-01-27T09:06:34;98977.22;;;-0.71;100.00
141;BME280;65;48.778;9.160;2023-01-27T09:09:00;98980.69;;;-0.70;100.00
141;BME280;65;48.778;9.160;2023-01-27T09:11:42;98972.88;;;-0.69;100.00
141;BME280;65;48.778;9.160;2023-01-27T09:14:09;98970.25;;;-0.64;98.67
141;BME280;65;48.778;9.160;2023-01-27T09:16:35;98967.72;;;-0.73;98.97
141;BME280;65;48.778;9.160;2023-01-27T09:19:00;98970.28;;;-0.67;98.64
141;BME280;65;48.778;9.160;2023-01-27T09:21:26;98969.41;;;-0.66;98.75
141;BME280;65;48.778;9.160;2023-01-27T09:23:51;98964.22;;;-0.68;98.08
141;BME280;65;48.778;9.160;2023-01-27T09:26:17;98963.44;;;-0.83;99.20
141;BME280;65;48.778;9.160;2023-01-27T09:28:42;98968.59;;;-0.73;98.90
141;BME280;65;48.778;9.160;2023-01-27T09:31:07;98972.88;;;-0.69;97.98
141;BME280;65;48.778;9.160;2023-01-27T09:33:33;98974.56;;;-0.63;98.41
141;BME280;65;48.778;9.160;2023-01-27T09:36:14;98975.41;;;-0.59;98.22
141;BME280;65;48.778;9.160;2023-01-27T09:39:02;98970.25;;;-0.61;97.56
141;BME280;65;48.778;9.160;2023-01-27T09:44:34;98983.22;;;-0.59;97.54
141;BME280;65;48.778;9.160;2023-01-27T09:59:19;98984.97;;;-0.63;99.08
141;BME280;65;48.778;9.160;2023-01-27T10:05:27;98984.09;;;-0.60;99.95
141;BME280;65;48.778;9.160;2023-01-27T10:18:40;98982.25;;;-0.43;98.98
141;BME280;65;48.778;9.160;2023-01-27T10:22:08;98987.28;;;-0.19;97.21
141;BME280;65;48.778;9.160;2023-01-27T10:27:10;98974.28;;;-0.17;95.96
141;BME280;65;48.778;9.160;2023-01-27T10:29:45;98979.53;;;-0.25;96.58
141;BME280;65;48.778;9.160;2023-01-27T10:32:28;98971.63;;;-0.11;95.00
141;BME280;65;48.778;9.160;2023-01-27T10:37:30;98973.31;;;-0.04;93.58
141;BME280;65;48.778;9.160;2023-01-27T10:40:24;98975.88;;;0.02;94.30
141;BME280;65;48.778;9.160;2023-01-27T10:45:41;98981.66;;;0.33;90.89
141;BME280;65;48.778;9.160;2023-01-27T10:48:32;98977.28;;;0.37;90.83
141;BME280;65;48.778;9.160;2023-01-27T10:53:55;98988.81;;;0.10;90.06
141;BME280;65;48.778;9.160;2023-01-27T10:56:38;98983.50;;;0.20;90.97
141;BME280;65;48.778;9.160;2023-01-27T11:01:52;98980.78;;;0.32;91.26
141;BME280;65;48.778;9.160;2023-01-27T11:04:39;98986.03;;;0.29;91.73
141;BME280;65;48.778;9.160;2023-01-27T11:07:14;98973.19;;;0.11;91.96
141;BME280;65;48.778;9.160;2023-01-27T11:10:16;98972.44;;;0.02;92.26
141;BME280;65;48.778;9.160;2023-01-27T11:12:53;98971.41;;;0.18;92.34
141;BME280;65;48.778;9.160;2023-01-27T11:15:32;98973.78;;;0.39;89.96
141;BME280;65;48.778;9.160;2023-01-27T11:18:15;98976.50;;;0.28;90.91
141;BME280;65;48.778;9.160;2023-01-27T11:20:49;98975.69;;;0.23;91.80
141;BME280;65;48.778;9.160;2023-01-27T11:23:20;98974.75;;;0.29;91.07
141;BME280;65;48.778;9.160;2023-01-27T11:26:01;98980.75;;;0.36;91.53
141;BME280;65;48.778;9.160;2023-01-27T11:35:26;98968.72;;;0.28;92.16
141;BME280;65;48.778;9.160;2023-01-27T11:37:52;98972.97;;;0.34;92.30
141;BME280;65;48.778;9.160;2023-01-27T11:40:37;98957.38;;;0.36;91.82
141;BME280;65;48.778;9.160;2023-01-27T11:43:05;98965.28;;;0.25;93.01
141;BME280;65;48.778;9.160;2023-01-27T11:45:34;98954.78;;;0.36;90.00
141;BME280;65;48.778;9.160;2023-01-27T11:48:01;98949.50;;;0.42;91.06
141;BME280;65;48.778;9.160;2023-01-27T11:50:32;98953.81;;;0.43;90.23
141;BME280;65;48.778;9.160;2023-01-27T11:53:19;98942.53;;;0.44;90.89
141;BME280;65;48.778;9.160;2023-01-27T11:55:57;98948.84;;;0.21;92.01
141;BME280;65;48.778;9.160;2023-01-27T11:59:00;98949.50;;;0.43;91.61
141;BME280;65;48.778;9.160;2023-01-27T12:09:50;98934.53;;;0.65;89.83
141;BME280;65;48.778;9.160;2023-01-27T12:12:22;98939.72;;;0.67;90.69
141;BME280;65;48.778;9.160;2023-01-27T12:14:52;98944.78;;;0.77;89.34
141;BME280;65;48.778;9.160;2023-01-27T12:17:32;98943.97;;;0.74;89.38
141;BME280;65;48.778;9.160;2023-01-27T12:20:06;98933.72;;;0.57;90.98
141;BME280;65;48.778;9.160;2023-01-27T12:22:44;98932.78;;;0.66;91.14
141;BME280;65;48.778;9.160;2023-01-27T12:25:17;98930.03;;;0.78;88.67
141;BME280;65;48.778;9.160;2023-01-27T12:27:51;98935.50;;;0.53;90.54
141;BME280;65;48.778;9.160;2023-01-27T12:30:27;98929.31;;;0.67;90.00
141;BME280;65;48.778;9.160;2023-01-27T12:32:54;98921.53;;;0.65;90.38
141;BME280;65;48.778;9.160;2023-01-27T12:35:27;98919.69;;;0.75;90.15
141;BME280;65;48.778;9.160;2023-01-27T12:38:00;98933.53;;;0.75;90.09
141;BME280;65;48.778;9.160;2023-01-27T12:40:28;98928.44;;;0.66;91.54
141;BME280;65;48.778;9.160;2023-01-27T12:45:37;98930.03;;;0.79;90.50
141;BME280;65;48.778;9.160;2023-01-27T12:50:38;98930.06;;;0.76;90.73
141;BME280;65;48.778;9.160;2023-01-27T12:53:05;98926.66;;;0.71;91.50
141;BME280;65;48.778;9.160;2023-01-27T12:55:36;98927.63;;;0.62;91.98
141;BME280;65;48.778;9.160;2023-01-27T12:58:03;98926.72;;;0.65;92.40
141;BME280;65;48.778;9.160;2023-01-27T13:00:29;98922.34;;;0.69;92.11
141;BME280;65;48.778;9.160;2023-01-27T13:03:04;98929.41;;;0.59;93.11
141;BME280;65;48.778;9.160;2023-01-27T13:05:37;98931.97;;;0.62;92.11
141;BME280;65;48.778;9.160;2023-01-27T13:08:12;98926.84;;;0.53;93.82
141;BME280;65;48.778;9.160;2023-01-27T13:10:38;98921.72;;;0.47;95.28
141;BME280;65;48.778;9.160;2023-01-27T13:13:04;98923.50;;;0.42;95.28
141;BME280;65;48.778;9.160;2023-01-27T13:15:30;98926.00;;;0.51;95.36
141;BME280;65;48.778;9.160;2023-01-27T13:17:58;98928.59;;;0.51;94.71
141;BME280;65;48.778;9.160;2023-01-27T13:20:40;98922.59;;;0.44;95.74
141;BME280;65;48.778;9.160;2023-01-27T13:25:46;98921.69;;;0.48;94.46
141;BME280;65;48.778;9.160;2023-01-27T13:28:27;98924.16;;;0.63;94.27
141;BME280;65;48.778;9.160;2023-01-27T13:30:58;98921.66;;;0.51;95.54
141;BME280;65;48.778;9.160;2023-01-27T13:33:42;98930.25;;;0.61;93.32
141;BME280;65;48.778;9.160;2023-01-27T13:42:02;98940.22;;;0.18;96.87
141;BME280;65;48.778;9.160;2023-01-27T13:44:41;98941.81;;;0.31;97.29
141;BME280;65;48.778;9.160;2023-01-27T13:47:22;98954.06;;;0.18;98.67
141;BME280;65;48.778;9.160;2023-01-27T13:52:51;98949.69;;;0.25;96.52
141;BME280;65;48.778;9.160;2023-01-27T13:55:25;98957.56;;;0.17;98.36
141;BME280;65;48.778;9.160;2023-01-27T14:01:03;98953.28;;;0.10;98.01
141;BME280;65;48.778;9.160;2023-01-27T14:08:48;98966.28;;;0.12;99.75
141;BME280;65;48.778;9.160;2023-01-27T14:11:33;98960.03;;;0.29;96.39
141;BME280;65;48.778;9.160;2023-01-27T14:19:52;98979.28;;;0.09;97.85
141;BME280;65;48.778;9.160;2023-01-27T14:30:36;98974.16;;;-0.04;98.66
141;BME280;65;48.778;9.160;2023-01-27T14:38:47;98978.63;;;-0.21;100.00
141;BME280;65;48.778;9.160;2023-01-27T14:46:55;98990.72;;;-0.15;100.00
141;BME280;65;48.778;9.160;2023-01-27T14:49:41;98987.19;;;-0.08;99.14
141;BME280;65;48.778;9.160;2023-01-27T14:52:29;98983.69;;;-0.04;99.29
141;BME280;65;48.778;9.160;2023-01-27T14:58:35;98978.44;;;0.07;97.44
141;BME280;65;48.778;9.160;2023-01-27T15:04:34;98988.88;;;-0.01;98.70
141;BME280;65;48.778;9.160;2023-01-27T15:07:25;98979.34;;;0.01;99.28
141;BME280;65;48.778;9.160;2023-01-27T15:26:28;98979.34;;;0.04;97.95
141;BME280;65;48.778;9.160;2023-01-27T15:28:54;98981.06;;;0.05;97.45
141;BME280;65;48.778;9.160;2023-01-27T15:31:27;98985.34;;;0.09;96.88
141;BME280;65;48.778;9.160;2023-01-27T15:34:14;98983.72;;;-0.06;98.08
141;BME280;65;48.778;9.160;2023-01-27T15:37:00;98995.00;;;-0.11;99.49
141;BME280;65;48.778;9.160;2023-01-27T15:39:26;98993.25;;;-0.08;98.49
141;BME280;65;48.778;9.160;2023-01-27T15:44:31;98984.56;;;-0.05;98.25
141;BME280;65;48.778;9.160;2023-01-27T15:47:10;98984.56;;;-0.05;98.86
141;BME280;65;48.778;9.160;2023-01-27T15:49:39;98982.88;;;-0.08;99.93
141;BME280;65;48.778;9.160;2023-01-27T15:52:30;98998.44;;;-0.08;99.00
141;BME280;65;48.778;9.160;2023-01-27T15:54:59;98991.63;;;-0.21;98.79
141;BME280;65;48.778;9.160;2023-01-27T15:57:30;98995.06;;;-0.17;99.16
141;BME280;65;48.778;9.160;2023-01-27T16:00:26;99019.31;;;-0.17;99.71
141;BME280;65;48.778;9.160;2023-01-27T16:02:52;99026.13;;;-0.05;97.92
141;BME280;65;48.778;9.160;2023-01-27T16:05:40;99032.19;;;-0.05;98.64
141;BME280;65;48.778;9.160;2023-01-27T16:08:12;99028.78;;;-0.11;99.05
141;BME280;65;48.778;9.160;2023-01-27T16:10:39;99027.91;;;-0.12;99.38
141;BME280;65;48.778;9.160;2023-01-27T16:13:27;99035.66;;;0.02;97.86
141;BME280;65;48.778;9.160;2023-01-27T16:18:58;99037.41;;;-0.08;98.65
141;BME280;65;48.778;9.160;2023-01-27T16:21:34;99046.13;;;-0.13;99.52
141;BME280;65;48.778;9.160;2023-01-27T16:24:08;99053.00;;;-0.06;97.62
141;BME280;65;48.778;9.160;2023-01-27T16:26:44;99051.31;;;-0.15;97.69
141;BME280;65;48.778;9.160;2023-01-27T16:29:26;99053.88;;;-0.09;97.40
141;BME280;65;48.778;9.160;2023-01-27T16:32:21;99059.09;;;-0.10;97.49
141;BME280;65;48.778;9.160;2023-01-27T16:37:27;99060.84;;;-0.14;97.98
141;BME280;65;48.778;9.160;2023-01-27T16:40:05;99057.38;;;-0.14;97.97
141;BME280;65;48.778;9.160;2023-01-27T16:42:44;99058.25;;;-0.14;98.26
141;BME280;65;48.778;9.160;2023-01-27T16:45:41;99060.78;;;-0.06;98.05
141;BME280;65;48.778;9.160;2023-01-27T16:50:55;99064.31;;;-0.13;98.41